Time;durP1;ratioP1;P1;durP2;ratioP2;P2;SDS_P1;SDS_P2;PMS_P1;PMS_P2;Temp;Humidity;BMP_temperature;BMP_pressure;BME280_temperature;BME280_humidity;BME280_pressure;Samples;Min_cycle;Max_cycle;Signal;HPM_P1;HPM_P2
2021/11/13 00:02:13;;;;;;;11.25;4.90;;;;;;;5.17;100.00;100896.25;6308619;28;20060;-68
2021/11/13 00:05:14;;;;;;;8.00;4.53;;;;;;;5.17;100.00;100894.50;6320512;28;20035;-68
2021/11/13 00:08:17;;;;;;;9.43;4.75;;;;;;;5.16;100.00;100884.13;6315980;28;20585;-68
2021/11/13 00:11:19;;;;;;;13.30;5.47;;;;;;;5.12;100.00;100883.34;6304037;28;20057;-68
2021/11/13 00:14:20;;;;;;;9.95;4.53;;;;;;;5.12;100.00;100883.34;6296279;28;20048;-68
2021/11/13 00:17:22;;;;;;;10.55;4.68;;;;;;;5.13;100.00;100885.06;6320370;28;20051;-68
2021/11/13 00:20:25;;;;;;;10.32;4.28;;;;;;;5.06;100.00;100868.75;6319690;28;20063;-68
2021/11/13 00:23:28;;;;;;;10.88;5.55;;;;;;;5.07;100.00;100867.84;6296551;28;20068;-68
2021/11/13 00:26:30;;;;;;;12.52;5.32;;;;;;;5.08;100.00;100872.16;6317825;28;20048;-68
2021/11/13 00:29:31;;;;;;;14.38;4.95;;;;;;;5.14;100.00;100881.56;6301704;28;20048;-68
2021/11/13 00:32:33;;;;;;;11.35;4.65;;;;;;;5.14;100.00;100878.13;6318761;28;20561;-68
2021/11/13 00:35:35;;;;;;;13.68;5.20;;;;;;;5.11;100.00;100881.66;6320173;28;20044;-68
2021/11/13 00:38:37;;;;;;;10.95;4.72;;;;;;;5.09;100.00;100881.72;6320259;28;20055;-68
2021/11/13 00:41:39;;;;;;;7.80;4.15;;;;;;;5.12;100.00;100875.53;6319493;28;20059;-68
2021/11/13 00:44:40;;;;;;;11.68;5.25;;;;;;;5.09;100.00;100873.03;6320352;28;20040;-68
2021/11/13 00:47:42;;;;;;;14.23;5.63;;;;;;;5.09;100.00;100867.84;6308564;28;20053;-68
2021/11/13 00:50:43;;;;;;;7.55;3.58;;;;;;;5.12;100.00;100866.88;6295159;28;20055;-68
2021/11/13 00:53:46;;;;;;;10.95;4.88;;;;;;;5.15;100.00;100865.03;6295938;28;20051;-68
2021/11/13 00:56:47;;;;;;;11.40;4.90;;;;;;;5.20;100.00;100864.91;6294999;28;20515;-68
2021/11/13 00:59:49;;;;;;;13.43;4.57;;;;;;;5.28;100.00;100868.16;6294865;28;20613;-68
2021/11/13 01:02:50;;;;;;;11.20;4.28;;;;;;;5.27;100.00;100869.06;6294901;28;20049;-68
2021/11/13 01:05:52;;;;;;;9.63;4.13;;;;;;;5.30;100.00;100874.16;6294784;28;20406;-68
2021/11/13 01:08:55;;;;;;;13.65;5.35;;;;;;;5.33;100.00;100863.66;6294688;28;20055;-68
2021/11/13 01:11:57;;;;;;;10.32;4.90;;;;;;;5.37;100.00;100859.22;6294710;28;20055;-68
2021/11/13 01:14:59;;;;;;;9.77;4.20;;;;;;;5.41;100.00;100863.44;6294667;28;20098;-68
2021/11/13 01:18:02;;;;;;;8.32;4.22;;;;;;;5.45;100.00;100868.50;6294876;28;20048;-68
2021/11/13 01:21:03;;;;;;;14.77;4.30;;;;;;;5.49;100.00;100871.84;6294464;28;20056;-68
2021/11/13 01:24:06;;;;;;;8.52;4.05;;;;;;;5.52;100.00;100862.19;6295625;28;20051;-68
2021/11/13 01:27:08;;;;;;;9.75;4.15;;;;;;;5.55;100.00;100859.50;6294873;28;20056;-68
2021/11/13 01:30:11;;;;;;;9.82;4.57;;;;;;;5.58;100.00;100861.97;6294639;28;20510;-68
2021/11/13 01:33:13;;;;;;;10.82;4.95;;;;;;;5.63;100.00;100856.63;6294808;28;20056;-68
2021/11/13 01:36:14;;;;;;;10.88;5.03;;;;;;;5.63;100.00;100843.59;6294488;28;20056;-68
2021/11/13 01:39:17;;;;;;;14.80;4.95;;;;;;;5.65;100.00;100836.59;6294819;28;20044;-68
2021/11/13 01:42:18;;;;;;;10.68;4.55;;;;;;;5.67;100.00;100839.13;6294317;28;20048;-68
2021/11/13 01:45:20;;;;;;;5.45;3.08;;;;;;;5.76;100.00;100838.84;6294312;28;20049;-68
2021/11/13 01:48:21;;;;;;;6.90;3.50;;;;;;;5.79;100.00;100837.00;6294594;28;20049;-68
2021/11/13 01:51:25;;;;;;;9.15;3.25;;;;;;;5.81;100.00;100832.59;6298664;28;20063;-68
2021/11/13 01:54:29;;;;;;;7.45;3.85;;;;;;;5.86;100.00;100840.28;6298674;28;20059;-68
2021/11/13 01:57:34;;;;;;;6.65;3.17;;;;;;;5.90;100.00;100831.44;6322434;28;20533;-68
2021/11/13 02:00:39;;;;;;;8.70;3.65;;;;;;;5.96;100.00;100843.47;6323740;28;20052;-68
2021/11/13 02:03:41;;;;;;;6.75;3.28;;;;;;;6.07;100.00;100826.53;6320273;28;20044;-68
2021/11/13 02:06:42;;;;;;;9.73;3.58;;;;;;;6.12;100.00;100828.16;6320294;28;20049;-68
2021/11/13 02:09:45;;;;;;;7.28;4.00;;;;;;;6.18;100.00;100839.25;6306357;28;20047;-68
2021/11/13 02:12:46;;;;;;;5.78;3.08;;;;;;;6.16;100.00;100822.78;6311517;28;20044;-68
2021/11/13 02:15:47;;;;;;;7.22;3.22;;;;;;;6.23;100.00;100816.47;6298084;28;20044;-68
2021/11/13 02:18:49;;;;;;;5.38;2.50;;;;;;;6.28;100.00;100821.53;6298032;28;20079;-68
2021/11/13 02:21:52;;;;;;;5.55;3.30;;;;;;;6.34;100.00;100829.97;6310949;28;20040;-68
2021/11/13 02:24:54;;;;;;;7.78;3.60;;;;;;;6.35;100.00;100829.06;6311210;28;20051;-68
2021/11/13 02:27:56;;;;;;;6.80;3.05;;;;;;;6.38;100.00;100829.88;6322947;28;20063;-68
2021/11/13 02:30:59;;;;;;;7.95;3.30;;;;;;;6.38;100.00;100822.06;6323120;28;20055;-68
2021/11/13 02:34:01;;;;;;;8.52;2.80;;;;;;;6.39;100.00;100819.38;6322761;28;20406;-68
2021/11/13 02:37:04;;;;;;;5.43;2.72;;;;;;;6.35;100.00;100829.06;6308636;28;20115;-68
2021/11/13 02:40:08;;;;;;;6.55;3.45;;;;;;;6.39;100.00;100821.13;6297446;28;20067;-68
2021/11/13 02:43:10;;;;;;;4.88;3.28;;;;;;;6.37;100.00;100821.19;6297616;28;20469;-68
2021/11/13 02:46:11;;;;;;;4.88;2.45;;;;;;;6.38;100.00;100819.44;6297452;28;20047;-68
2021/11/13 02:49:14;;;;;;;10.25;3.72;;;;;;;6.43;100.00;100807.94;6297826;28;20488;-69
2021/11/13 02:52:17;;;;;;;5.72;3.15;;;;;;;6.45;100.00;100808.75;6297256;28;20086;-68
2021/11/13 02:55:19;;;;;;;5.95;3.42;;;;;;;6.46;100.00;100807.81;6306318;28;20506;-68
2021/11/13 02:58:21;;;;;;;8.93;3.92;;;;;;;6.42;100.00;100803.63;6322461;28;20052;-68
2021/11/13 03:01:24;;;;;;;8.68;3.28;;;;;;;6.40;100.00;100804.56;6321890;28;20048;-68
2021/11/13 03:04:26;;;;;;;6.10;3.42;;;;;;;6.38;100.00;100803.78;6322357;28;20044;-69
2021/11/13 03:07:28;;;;;;;9.05;3.42;;;;;;;6.37;100.00;100797.72;6322037;28;20406;-68
2021/11/13 03:10:32;;;;;;;12.32;3.15;;;;;;;6.32;100.00;100797.88;6322072;28;20067;-68
2021/11/13 03:13:35;;;;;;;5.60;3.33;;;;;;;6.30;100.00;100797.06;6321959;28;20048;-69
2021/11/13 03:16:37;;;;;;;10.82;3.80;;;;;;;6.36;100.00;100793.41;6321925;28;20055;-69
2021/11/13 03:19:38;;;;;;;6.38;3.60;;;;;;;6.29;100.00;100797.97;6321791;28;20517;-68
2021/11/13 03:22:42;;;;;;;6.10;3.30;;;;;;;6.27;100.00;100793.72;6321317;28;20052;-68
2021/11/13 03:25:50;;;;;;;6.63;3.03;;;;;;;6.19;100.00;100791.38;6311759;28;20044;-68
2021/11/13 03:28:55;;;;;;;6.07;3.22;;;;;;;6.11;100.00;100793.38;6296656;28;20189;-68
2021/11/13 03:31:57;;;;;;;5.72;3.13;;;;;;;6.04;100.00;100791.88;6296723;28;20044;-68
2021/11/13 03:35:01;;;;;;;5.68;3.05;;;;;;;5.96;100.00;100784.34;6296717;28;20051;-68
2021/11/13 03:38:07;;;;;;;7.40;3.17;;;;;;;5.84;100.00;100788.16;6296258;28;20142;-67
2021/11/13 03:41:08;;;;;;;4.18;3.08;;;;;;;5.73;100.00;100787.66;6295816;28;20048;-67
2021/11/13 03:44:10;;;;;;;6.30;2.83;;;;;;;5.68;100.00;100793.91;6295865;28;20501;-67
2021/11/13 03:47:11;;;;;;;9.90;3.28;;;;;;;5.64;100.00;100797.53;6296102;28;20048;-67
2021/11/13 03:50:13;;;;;;;7.35;2.92;;;;;;;5.62;100.00;100788.91;6295847;28;20056;-67
2021/11/13 03:53:16;;;;;;;8.70;3.70;;;;;;;5.65;100.00;100792.28;6295779;28;20048;-67
2021/11/13 03:56:17;;;;;;;7.25;3.38;;;;;;;5.60;100.00;100784.59;6312020;28;20048;-68
2021/11/13 03:59:22;;;;;;;6.65;3.45;;;;;;;5.58;100.00;100789.00;6320935;28;20051;-68
2021/11/13 04:02:24;;;;;;;6.30;3.63;;;;;;;5.54;100.00;100794.34;6320259;28;20146;-67
2021/11/13 04:05:25;;;;;;;8.05;3.63;;;;;;;5.50;100.00;100803.19;6320319;28;20055;-68
2021/11/13 04:08:28;;;;;;;7.90;3.83;;;;;;;5.47;100.00;100804.13;6311649;28;20048;-68
2021/11/13 04:11:29;;;;;;;7.82;3.72;;;;;;;5.52;100.00;100798.78;6294967;28;20059;-68
2021/11/13 04:14:31;;;;;;;8.98;3.60;;;;;;;5.41;100.00;100796.53;6296056;28;20045;-68
2021/11/13 04:17:33;;;;;;;10.52;3.90;;;;;;;5.42;100.00;100794.75;6295670;28;20074;-67
2021/11/13 04:20:34;;;;;;;9.43;3.75;;;;;;;5.40;100.00;100800.00;6295189;28;20072;-68
2021/11/13 04:23:37;;;;;;;6.63;3.58;;;;;;;5.37;100.00;100807.09;6295654;28;20487;-67
2021/11/13 04:26:39;;;;;;;10.52;3.40;;;;;;;5.37;100.00;100800.13;6317361;28;20555;-67
2021/11/13 04:29:40;;;;;;;6.50;3.28;;;;;;;5.31;100.00;100801.16;6301146;28;20045;-67
2021/11/13 04:32:42;;;;;;;7.20;3.17;;;;;;;5.31;100.00;100808.09;6295134;28;20077;-68
2021/11/13 04:35:59;;;;;;;5.28;3.33;;;;;;;5.31;100.00;100813.31;6295443;28;20078;-68
2021/11/13 04:39:04;;;;;;;7.00;3.03;;;;;;;5.31;100.00;100813.31;6295237;28;20514;-68
2021/11/13 04:42:06;;;;;;;10.10;2.67;;;;;;;5.29;100.00;100821.19;6295096;28;20052;-67
2021/11/13 04:45:08;;;;;;;5.35;2.70;;;;;;;5.27;100.00;100815.19;6295154;28;20506;-68
2021/11/13 04:48:09;;;;;;;8.65;3.45;;;;;;;5.29;100.00;100822.94;6295165;28;20044;-67
2021/11/13 04:51:11;;;;;;;6.28;3.55;;;;;;;5.25;100.00;100819.56;6294913;28;20503;-67
2021/11/13 04:54:13;;;;;;;5.95;3.03;;;;;;;5.30;100.00;100822.88;6298150;28;20036;-67
2021/11/13 04:57:15;;;;;;;5.60;3.47;;;;;;;5.22;100.00;100816.19;6320291;28;20055;-67
2021/11/13 05:00:20;;;;;;;3.85;2.28;;;;;;;5.21;100.00;100819.72;6319784;28;20395;-67
2021/11/13 05:03:21;;;;;;;6.63;2.78;;;;;;;5.20;100.00;100811.03;6320144;28;20080;-67
2021/11/13 05:06:23;;;;;;;6.45;3.47;;;;;;;5.25;100.00;100813.50;6319805;28;20052;-67
2021/11/13 05:09:26;;;;;;;5.60;2.80;;;;;;;5.26;100.00;100818.66;6319846;28;20052;-67
2021/11/13 05:12:27;;;;;;;6.20;2.92;;;;;;;5.18;100.00;100811.97;6319052;28;20059;-67
2021/11/13 05:15:28;;;;;;;8.45;3.13;;;;;;;5.16;100.00;100813.78;6302960;28;20056;-67
2021/11/13 05:18:30;;;;;;;4.20;2.67;;;;;;;5.12;100.00;100812.16;6296086;28;20045;-67
2021/11/13 05:21:31;;;;;;;8.80;3.08;;;;;;;5.07;100.00;100818.38;6300604;28;20055;-67
2021/11/13 05:24:34;;;;;;;8.63;3.60;;;;;;;5.07;100.00;100813.16;6320190;28;20511;-67
2021/11/13 05:27:37;;;;;;;5.40;3.00;;;;;;;5.03;100.00;100815.91;6324620;28;20551;-67
2021/11/13 05:30:38;;;;;;;5.18;2.90;;;;;;;5.02;100.00;100816.81;6316260;28;20059;-67
2021/11/13 05:33:40;;;;;;;11.60;3.42;;;;;;;4.99;100.00;100814.28;6325013;28;20051;-67
2021/11/13 05:36:42;;;;;;;5.63;2.53;;;;;;;4.96;100.00;100806.56;6325501;28;20055;-67
2021/11/13 05:39:44;;;;;;;5.95;3.05;;;;;;;4.97;100.00;100818.69;6319131;28;20071;-67
2021/11/13 05:42:47;;;;;;;9.20;3.38;;;;;;;4.95;100.00;100816.16;6324277;28;20047;-67
2021/11/13 05:45:48;;;;;;;7.32;3.25;;;;;;;4.99;100.00;100811.66;6324581;28;20196;-67
2021/11/13 05:48:49;;;;;;;7.72;3.22;;;;;;;5.00;100.00;100822.06;6325513;28;20058;-67
2021/11/13 05:51:51;;;;;;;6.95;2.85;;;;;;;5.01;100.00;100822.91;6324900;28;20072;-67
2021/11/13 05:54:54;;;;;;;4.80;2.60;;;;;;;5.01;100.00;100822.91;6316643;28;20044;-67
2021/11/13 05:57:57;;;;;;;7.32;3.60;;;;;;;5.00;100.00;100829.88;6312435;28;20048;-67
2021/11/13 06:00:58;;;;;;;4.40;2.55;;;;;;;5.05;100.00;100828.00;6320265;28;20044;-67
2021/11/13 06:03:59;;;;;;;9.63;2.88;;;;;;;5.01;100.00;100826.38;6322734;28;20051;-67
2021/11/13 06:07:01;;;;;;;6.13;2.97;;;;;;;5.02;100.00;100833.28;6322904;28;20074;-67
2021/11/13 06:10:05;;;;;;;8.38;3.25;;;;;;;5.01;100.00;100834.19;6311338;28;20055;-67
2021/11/13 06:13:07;;;;;;;5.43;2.88;;;;;;;5.03;100.00;100839.34;6310456;28;20052;-67
2021/11/13 06:16:09;;;;;;;10.48;4.13;;;;;;;5.07;100.00;100830.53;6321018;28;20047;-67
2021/11/13 06:19:10;;;;;;;4.93;2.25;;;;;;;5.03;100.00;100834.13;6321920;28;20082;-67
2021/11/13 06:22:12;;;;;;;6.38;3.42;;;;;;;5.07;100.00;100839.19;6321772;28;20044;-67
2021/11/13 06:25:16;;;;;;;6.10;2.88;;;;;;;5.08;100.00;100838.28;6320296;28;20044;-67
2021/11/13 06:28:17;;;;;;;7.78;3.72;;;;;;;5.06;100.00;100844.47;6320041;28;20047;-66
2021/11/13 06:31:18;;;;;;;6.32;2.80;;;;;;;5.05;100.00;100850.59;6322110;28;20414;-67
2021/11/13 06:34:20;;;;;;;6.03;2.60;;;;;;;5.06;100.00;100852.28;6322118;28;20044;-67
2021/11/13 06:37:21;;;;;;;11.38;3.63;;;;;;;5.06;100.00;100853.13;6322454;28;20043;-67
2021/11/13 06:40:24;;;;;;;6.50;3.25;;;;;;;5.07;100.00;100859.19;6322175;28;20055;-67
2021/11/13 06:43:25;;;;;;;5.72;3.13;;;;;;;5.03;100.00;100862.78;6322203;28;20044;-67
2021/11/13 06:46:27;;;;;;;9.40;2.90;;;;;;;5.06;100.00;100860.94;6309542;28;20044;-67
2021/11/13 06:49:28;;;;;;;7.47;2.97;;;;;;;5.01;100.00;100864.59;6309916;28;20040;-67
2021/11/13 06:52:30;;;;;;;8.55;3.38;;;;;;;5.04;100.00;100864.47;6321957;28;20491;-67
2021/11/13 06:55:32;;;;;;;8.35;2.60;;;;;;;5.03;100.00;100866.22;6320764;28;20052;-67
2021/11/13 06:58:34;;;;;;;5.43;2.97;;;;;;;5.07;100.00;100869.59;6313158;28;20067;-67
2021/11/13 07:01:35;;;;;;;9.60;2.90;;;;;;;5.05;100.00;100876.63;6298011;28;20053;-67
2021/11/13 07:04:37;;;;;;;6.28;2.63;;;;;;;5.04;100.00;100878.38;6298075;28;20048;-67
2021/11/13 07:07:39;;;;;;;6.85;3.13;;;;;;;5.02;100.00;100871.50;6298134;28;20048;-67
2021/11/13 07:10:42;;;;;;;5.88;3.13;;;;;;;5.01;100.00;100873.25;6297628;28;20052;-68
2021/11/13 07:13:44;;;;;;;8.18;3.67;;;;;;;5.02;100.00;100881.91;6298211;28;20055;-67
2021/11/13 07:16:45;;;;;;;5.97;2.70;;;;;;;5.05;100.00;100880.09;6297825;28;20052;-67
2021/11/13 07:19:47;;;;;;;6.65;2.53;;;;;;;5.04;100.00;100886.19;6297743;28;20510;-67
2021/11/13 07:22:48;;;;;;;7.55;2.70;;;;;;;5.08;100.00;100882.56;6309066;28;20044;-67
2021/11/13 07:25:51;;;;;;;9.90;3.50;;;;;;;5.08;100.00;100889.53;6318048;28;20043;-67
2021/11/13 07:29:00;;;;;;;5.72;2.85;;;;;;;5.08;100.00;100890.41;6321182;28;20117;-67
2021/11/13 07:32:01;;;;;;;9.07;3.13;;;;;;;5.10;100.00;100892.97;6307707;28;20511;-67
2021/11/13 07:35:03;;;;;;;7.05;2.88;;;;;;;5.13;100.00;100898.06;6321201;28;20043;-67
2021/11/13 07:38:05;;;;;;;14.05;3.03;;;;;;;5.14;100.00;100901.56;6320835;28;20044;-67
2021/11/13 07:41:08;;;;;;;5.70;2.67;;;;;;;5.16;100.00;100894.53;6321831;28;20488;-67
2021/11/13 07:44:09;;;;;;;9.55;3.00;;;;;;;5.17;100.00;100897.09;6322410;28;20055;-67
2021/11/13 07:47:11;;;;;;;5.95;3.25;;;;;;;5.26;100.00;100903.78;6321711;28;20509;-68
2021/11/13 07:50:14;;;;;;;5.30;3.25;;;;;;;5.28;100.00;100909.84;6321996;28;20058;-67
2021/11/13 07:53:15;;;;;;;4.70;2.65;;;;;;;5.32;100.00;100914.06;6320783;28;20044;-67
2021/11/13 07:56:18;;;;;;;5.20;2.35;;;;;;;5.35;100.00;100917.41;6321999;28;20048;-67
2021/11/13 07:59:20;;;;;;;8.00;3.75;;;;;;;5.40;100.00;100914.66;6322326;28;20486;-67
2021/11/13 08:02:21;;;;;;;10.35;3.22;;;;;;;5.46;100.00;100914.50;6321926;28;20055;-67
2021/11/13 08:05:23;;;;;;;8.60;2.45;;;;;;;5.45;100.00;100914.53;6319955;28;20044;-67
2021/11/13 08:08:25;;;;;;;5.75;2.30;;;;;;;5.46;100.00;100919.72;6321005;28;20052;-67
2021/11/13 08:11:27;;;;;;;6.95;3.30;;;;;;;5.53;100.00;100925.59;6305314;28;20052;-67
2021/11/13 08:14:29;;;;;;;4.88;3.00;;;;;;;5.55;100.00;100929.88;6312287;28;20056;-67
2021/11/13 08:17:30;;;;;;;9.20;3.85;;;;;;;5.52;100.00;100929.09;6321036;28;20043;-67
2021/11/13 08:20:33;;;;;;;6.25;3.42;;;;;;;5.48;100.00;100928.34;6317147;28;20040;-67
2021/11/13 08:23:34;;;;;;;6.88;2.58;;;;;;;5.55;100.00;100929.88;6312986;28;20040;-67
2021/11/13 08:26:37;;;;;;;9.30;3.55;;;;;;;5.59;100.00;100928.03;6319069;28;20036;-67
2021/11/13 08:29:39;;;;;;;5.43;3.10;;;;;;;5.64;100.00;100939.19;6296380;28;20164;-67
2021/11/13 08:32:40;;;;;;;7.53;2.60;;;;;;;5.70;100.00;100935.53;6305771;28;20047;-67
2021/11/13 08:35:43;;;;;;;8.00;3.00;;;;;;;5.72;100.00;100937.19;6309979;28;20472;-67
2021/11/13 08:38:45;;;;;;;7.05;2.80;;;;;;;5.75;100.00;100942.31;6301864;28;20419;-67
2021/11/13 08:41:47;;;;;;;5.13;2.22;;;;;;;5.79;100.00;100943.91;6320488;28;20416;-67
2021/11/13 08:44:50;;;;;;;7.57;2.83;;;;;;;5.84;100.00;100942.03;6321455;28;20048;-67
2021/11/13 08:47:51;;;;;;;6.47;2.80;;;;;;;5.90;100.00;100947.94;6321021;28;20047;-68
2021/11/13 08:50:53;;;;;;;5.47;3.08;;;;;;;5.98;100.00;100949.44;6321252;28;20055;-67
2021/11/13 08:53:55;;;;;;;5.13;2.58;;;;;;;5.93;100.00;100942.69;6319502;28;20048;-67
2021/11/13 08:56:58;;;;;;;7.28;2.90;;;;;;;5.90;100.00;100951.41;6308304;28;20044;-67
2021/11/13 08:59:59;;;;;;;9.27;4.53;;;;;;;5.95;100.00;100959.13;6300720;28;20049;-67
2021/11/13 09:03:04;;;;;;;7.50;3.10;;;;;;;5.94;100.00;100953.06;6300972;28;20060;-67
2021/11/13 09:06:08;;;;;;;7.78;3.47;;;;;;;5.99;100.00;100953.75;6301225;28;20498;-67
2021/11/13 09:09:10;;;;;;;4.15;2.42;;;;;;;5.98;100.00;100954.66;6301346;28;20139;-67
2021/11/13 09:12:21;;;;;;;6.47;2.85;;;;;;;5.96;100.00;100953.88;6301046;28;20186;-67
2021/11/13 09:15:26;;;;;;;4.85;2.00;;;;;;;6.01;100.00;100956.34;6300763;28;20096;-68
2021/11/13 09:18:27;;;;;;;4.90;2.60;;;;;;;6.05;100.00;100963.19;6301102;28;20059;-67
2021/11/13 09:21:29;;;;;;;10.48;3.58;;;;;;;6.04;100.00;100961.44;6300390;28;20052;-67
2021/11/13 09:24:31;;;;;;;13.00;3.70;;;;;;;6.02;100.00;100960.66;6321783;28;20051;-67
2021/11/13 09:27:33;;;;;;;6.35;3.22;;;;;;;6.02;100.00;100961.50;6325583;28;20095;-67
2021/11/13 09:30:36;;;;;;;6.05;3.17;;;;;;;6.04;100.00;100969.28;6325244;28;20052;-67
2021/11/13 09:33:38;;;;;;;12.75;3.75;;;;;;;6.07;100.00;100966.56;6325797;28;20517;-67
2021/11/13 09:36:40;;;;;;;7.05;2.55;;;;;;;6.12;100.00;100971.66;6325632;28;20040;-67
2021/11/13 09:39:41;;;;;;;7.03;3.35;;;;;;;6.14;100.00;100978.53;6325415;28;20048;-67
2021/11/13 09:42:45;;;;;;;6.88;2.80;;;;;;;6.16;100.00;100975.88;6325695;28;20048;-68
2021/11/13 09:45:46;;;;;;;4.60;2.33;;;;;;;6.17;100.00;100980.19;6325316;28;20051;-68
2021/11/13 09:48:51;;;;;;;7.40;1.90;;;;;;;6.18;100.00;100977.53;6325394;28;20051;-68
2021/11/13 09:51:53;;;;;;;7.78;2.40;;;;;;;6.23;100.00;100983.47;6324829;28;20051;-68
2021/11/13 09:54:54;;;;;;;7.70;2.85;;;;;;;6.26;100.00;100979.91;6325342;28;20055;-68
2021/11/13 09:57:57;;;;;;;6.53;2.92;;;;;;;6.29;100.00;100990.25;6325004;28;20051;-67
2021/11/13 10:00:59;;;;;;;7.63;2.88;;;;;;;6.33;100.00;100991.84;6324958;28;20052;-68
2021/11/13 10:04:01;;;;;;;6.43;2.67;;;;;;;6.37;100.00;100982.19;6324688;28;20044;-68
2021/11/13 10:07:02;;;;;;;6.47;2.90;;;;;;;6.40;100.00;100985.53;6324638;28;20044;-67
2021/11/13 10:10:04;;;;;;;7.93;3.28;;;;;;;6.44;100.00;100986.28;6323887;28;20044;-67
2021/11/13 10:13:25;;;;;;;6.93;2.47;;;;;;;6.46;100.00;100990.56;6323090;28;20055;-68
2021/11/13 10:16:31;;;;;;;7.13;3.78;;;;;;;6.49;100.00;100998.28;6324030;28;20044;-68
2021/11/13 10:19:33;;;;;;;7.82;2.50;;;;;;;6.46;100.00;100990.56;6322172;28;20114;-68
2021/11/13 10:22:43;;;;;;;5.65;2.90;;;;;;;6.46;100.00;100995.78;6299288;28;20044;-68
2021/11/13 10:25:55;;;;;;;6.03;2.88;;;;;;;6.48;100.00;101000.94;6304864;28;20043;-67
2021/11/13 10:29:02;;;;;;;3.97;2.20;;;;;;;6.50;100.00;101002.63;6310698;28;20048;-68
2021/11/13 10:32:06;;;;;;;5.10;2.70;;;;;;;6.53;100.00;101002.50;6298967;28;20080;-68
2021/11/13 10:35:08;;;;;;;7.97;3.55;;;;;;;6.57;100.00;101004.09;6299033;28;20052;-67
2021/11/13 10:38:17;;;;;;;6.93;2.83;;;;;;;6.63;100.00;101007.41;6301500;28;20059;-68
2021/11/13 10:41:18;;;;;;;4.43;2.63;;;;;;;6.66;100.00;101002.09;6319334;28;20044;-68
2021/11/13 10:44:25;;;;;;;7.05;3.38;;;;;;;6.70;100.00;101011.53;6324245;28;20063;-68
2021/11/13 10:47:31;;;;;;;6.13;3.65;;;;;;;6.67;100.00;101011.63;6323698;28;20051;-69
2021/11/13 10:50:32;;;;;;;8.68;2.80;;;;;;;6.67;100.00;101009.88;6323517;28;20465;-69
2021/11/13 10:53:34;;;;;;;8.63;3.97;;;;;;;6.66;100.00;100999.50;6323808;28;20055;-69
2021/11/13 10:56:43;;;;;;;6.40;2.80;;;;;;;6.64;100.00;101007.38;6323470;28;20048;-69
2021/11/13 10:59:45;;;;;;;5.78;2.10;;;;;;;6.63;100.00;101010.03;6323605;28;20059;-67
2021/11/13 11:03:06;;;;;;;4.72;3.08;;;;;;;6.57;100.00;101000.66;6323088;28;20118;-69
2021/11/13 11:06:09;;;;;;;6.55;3.30;;;;;;;6.60;100.00;101006.63;6300058;28;20553;-67
2021/11/13 11:09:33;;;;;;;7.00;2.95;;;;;;;6.59;100.00;101014.53;6298299;28;20051;-67
2021/11/13 11:12:37;;;;;;;7.70;4.07;;;;;;;6.55;100.00;101003.31;6303756;28;20040;-67
2021/11/13 11:15:41;;;;;;;12.30;3.63;;;;;;;6.59;100.00;101004.06;6323328;28;20059;-67
2021/11/13 11:19:02;;;;;;;5.55;3.58;;;;;;;6.59;100.00;101009.31;6322979;28;20051;-68
2021/11/13 11:22:06;;;;;;;7.95;3.72;;;;;;;6.57;100.00;100998.88;6321912;28;20188;-69
2021/11/13 11:25:11;;;;;;;5.90;3.08;;;;;;;6.58;100.00;101004.97;6322094;28;20056;-68
2021/11/13 11:28:13;;;;;;;5.65;2.75;;;;;;;6.59;100.00;101001.47;6321879;28;20040;-69
2021/11/13 11:31:39;;;;;;;9.65;4.32;;;;;;;6.57;100.00;101006.72;6322564;28;20052;-67
2021/11/13 11:34:43;;;;;;;6.88;3.38;;;;;;;6.55;100.00;101005.06;6322705;28;20055;-69
2021/11/13 11:37:46;;;;;;;11.40;4.63;;;;;;;6.60;100.00;101003.16;6322488;28;20051;-70
2021/11/13 11:40:48;;;;;;;7.32;3.63;;;;;;;6.66;100.00;101000.34;6320399;28;20048;-67
2021/11/13 11:43:51;;;;;;;8.23;3.97;;;;;;;6.73;100.00;101011.47;6322439;28;20055;-68
2021/11/13 11:46:54;;;;;;;7.88;3.20;;;;;;;6.75;100.00;101009.63;6322356;28;20415;-70
2021/11/13 11:49:58;;;;;;;13.90;4.57;;;;;;;6.79;100.00;101006.03;6321923;28;20410;-67
2021/11/13 11:53:05;;;;;;;6.78;3.67;;;;;;;6.80;100.00;101011.19;6322440;28;20044;-70
2021/11/13 11:56:06;;;;;;;6.45;2.97;;;;;;;6.87;100.00;101011.84;6322021;28;20052;-68
2021/11/13 11:59:08;;;;;;;7.63;3.67;;;;;;;6.90;100.00;101003.88;6322334;28;20054;-70
2021/11/13 12:02:14;;;;;;;7.07;3.45;;;;;;;6.90;100.00;101008.25;6321809;28;20048;-70
2021/11/13 12:05:20;;;;;;;7.63;3.60;;;;;;;6.90;100.00;101005.66;6322226;28;20052;-69
2021/11/13 12:08:23;;;;;;;6.00;3.80;;;;;;;6.89;100.00;101014.41;6321782;28;20406;-70
2021/11/13 12:11:26;;;;;;;9.98;4.00;;;;;;;6.91;100.00;101015.22;6311068;28;20060;-67
2021/11/13 12:14:35;;;;;;;10.07;3.70;;;;;;;6.93;100.00;101013.38;6317702;28;20059;-67
2021/11/13 12:17:38;;;;;;;7.88;3.45;;;;;;;6.93;100.00;101021.22;6321486;28;20043;-69
2021/11/13 12:20:39;;;;;;;7.13;3.70;;;;;;;6.94;100.00;101017.69;6318941;28;20489;-70
2021/11/13 12:23:44;;;;;;;8.52;3.47;;;;;;;6.98;100.00;101014.09;6301805;28;20067;-69
2021/11/13 12:26:58;;;;;;;9.80;3.60;;;;;;;7.02;100.00;101015.69;6312181;28;20047;-70
2021/11/13 12:30:00;;;;;;;9.43;3.85;;;;;;;7.05;100.00;101013.84;6312420;28;20051;-68
2021/11/13 12:33:02;;;;;;;6.80;3.60;;;;;;;7.09;100.00;101022.44;6310724;28;20047;-71
2021/11/13 12:36:08;;;;;;;5.15;2.97;;;;;;;7.05;100.00;101015.59;6319142;28;20059;-70
2021/11/13 12:39:13;;;;;;;7.35;3.30;;;;;;;7.04;100.00;101019.09;6321466;28;20056;-70
2021/11/13 12:42:23;;;;;;;9.85;3.28;;;;;;;7.02;100.00;101021.75;6308166;28;20052;-70
2021/11/13 12:45:28;;;;;;;6.47;3.40;;;;;;;7.03;100.00;101025.22;6315265;28;20052;-68
2021/11/13 12:48:30;;;;;;;6.28;3.25;;;;;;;7.01;100.00;101022.69;6321518;28;20047;-71
2021/11/13 12:51:33;;;;;;;9.13;3.40;;;;;;;7.03;100.00;101026.06;6321453;28;20071;-71
2021/11/13 12:54:37;;;;;;;10.73;5.88;;;;;;;7.08;100.00;101036.38;6321457;28;20483;-68
2021/11/13 12:57:40;;;;;;;8.80;4.10;;;;;;;7.08;100.00;101029.38;6321514;28;20055;-68
2021/11/13 13:00:47;;;;;;;6.10;3.40;;;;;;;7.08;100.00;101031.16;6320757;28;20052;-70
2021/11/13 13:03:49;;;;;;;9.15;3.42;;;;;;;7.08;100.00;101024.16;6321440;28;20048;-69
2021/11/13 13:06:53;;;;;;;6.28;3.63;;;;;;;7.10;100.00;101039.81;6320885;28;20440;-69
2021/11/13 13:09:56;;;;;;;5.60;3.03;;;;;;;7.11;100.00;101038.88;6318811;28;20044;-69
2021/11/13 13:13:05;;;;;;;8.07;3.38;;;;;;;7.12;100.00;101045.81;6295992;28;20053;-71
2021/11/13 13:16:08;;;;;;;5.43;3.10;;;;;;;7.11;100.00;101034.50;6295857;28;20044;-69
2021/11/13 13:19:11;;;;;;;8.48;3.55;;;;;;;7.12;100.00;101037.97;6305345;28;20048;-69
2021/11/13 13:22:13;;;;;;;10.00;3.25;;;;;;;7.14;100.00;101046.63;6320185;28;20114;-68
2021/11/13 13:25:14;;;;;;;8.88;3.08;;;;;;;7.17;100.00;101041.28;6316105;28;20040;-69
2021/11/13 13:28:20;;;;;;;5.82;2.85;;;;;;;7.30;100.00;101039.09;6312930;28;20048;-69
2021/11/13 13:31:21;;;;;;;4.55;2.92;;;;;;;7.24;100.00;101048.00;6320316;28;20044;-69
2021/11/13 13:34:25;;;;;;;5.63;3.15;;;;;;;7.23;100.00;101046.31;6320906;28;20048;-69
2021/11/13 13:37:30;;;;;;;4.35;2.38;;;;;;;7.26;100.00;101045.34;6320278;28;20055;-70
2021/11/13 13:40:33;;;;;;;5.40;2.55;;;;;;;7.28;100.00;101046.16;6319109;28;20391;-69
2021/11/13 13:43:38;;;;;;;7.53;3.35;;;;;;;7.28;100.00;101041.78;6320526;28;20044;-69
2021/11/13 13:46:42;;;;;;;6.82;3.22;;;;;;;7.27;100.00;101040.06;6324280;28;20065;-70
2021/11/13 13:49:45;;;;;;;6.38;3.10;;;;;;;7.29;100.00;101043.47;6325079;28;20162;-69
2021/11/13 13:52:47;;;;;;;7.95;3.58;;;;;;;7.27;100.00;101047.94;6316094;28;20050;-69
2021/11/13 13:55:49;;;;;;;11.45;3.20;;;;;;;7.32;100.00;101039.91;6324277;28;20052;-69
2021/11/13 13:58:51;;;;;;;7.35;3.08;;;;;;;7.27;100.00;101041.84;6321225;28;20040;-70
2021/11/13 14:01:54;;;;;;;5.38;2.75;;;;;;;7.26;100.00;101048.81;6323999;28;20541;-69
2021/11/13 14:04:58;;;;;;;5.88;3.40;;;;;;;7.20;100.00;101049.03;6321596;28;20048;-69
2021/11/13 14:08:07;;;;;;;5.13;2.72;;;;;;;7.21;100.00;101050.72;6321221;28;20036;-69
2021/11/13 14:11:09;;;;;;;6.15;3.50;;;;;;;7.21;100.00;101063.78;6320847;28;20051;-69